< < Back
Terminal Aerodrome Forecast


Current Version              Previous Versions:   1  2  3  4  5  6  7  8  9  

Terminal Aerodrome Forecast

933
FTUS44 KOHX 271130
TAFBNA
TAF
KBNA 271130Z 2712/2812 18003KT P6SM SCT120 SCT250
     FM271700 19006KT P6SM VCTS BKN050CB
     FM272100 19006KT 6SM -SHRA VCTS OVC060CB
     FM280200 19003KT 5SM -SHRA BR VCTS OVC035CB
     FM280800 24004KT 3SM -SHRA BR OVC010=



Latest METAR

323
SAUS70 KWBC 271456
MTRBNA
METAR KBNA 271453Z VRB03KT 10SM FEW036 SCT060 SCT100 BKN250 29/22 A3003
RMK AO2 SLP161 T02940222 55001


USA.gov is the U.S. government's official web portal to all federal, state and local government web resources and services.